Terminal Aerodrome Forecast
Issued by NWS

Home | Current Version | Previous Version | Graphics & Text | Print | Product List | Glossary On
Versions: 1 2 3 4 5 6 7 8 9 10 11 12 13 14 15
852
FTUS43 KLSX 090539
TAFSUS
TAF
KSUS 090539Z 0906/1006 24009KT P6SM SKC
     FM091000 28011KT P6SM -SN OVC020
     FM091600 31015G24KT P6SM BKN035
     FM091800 32015G23KT P6SM SCT040
     FM092300 31011KT P6SM FEW250
     FM100100 29004KT P6SM SKC=

USA.gov is the U.S. government's official web portal to all federal, state and local government web resources and services.